sensor_id;sensor_type;location;lat;lon;timestamp;temperature;humidity
6740;DHT22;3407;49.882;10.920;2023-02-10T00:01:07;-4.70;1.00
6740;DHT22;3407;49.882;10.920;2023-02-10T00:06:04;-4.80;1.00
6740;DHT22;3407;49.882;10.920;2023-02-10T00:11:05;-4.90;1.00
6740;DHT22;3407;49.882;10.920;2023-02-10T00:16:02;-5.00;1.00
6740;DHT22;3407;49.882;10.920;2023-02-10T00:21:11;-4.90;1.00
6740;DHT22;3407;49.882;10.920;2023-02-10T00:26:11;-5.00;1.00
6740;DHT22;3407;49.882;10.920;2023-02-10T00:31:12;-5.10;1.00
6740;DHT22;3407;49.882;10.920;2023-02-10T00:36:10;-5.10;1.00
6740;DHT22;3407;49.882;10.920;2023-02-10T00:41:08;-5.10;1.00
6740;DHT22;3407;49.882;10.920;2023-02-10T00:46:04;-5.10;1.00
6740;DHT22;3407;49.882;10.920;2023-02-10T00:50:59;-5.20;1.00
6740;DHT22;3407;49.882;10.920;2023-02-10T00:55:55;-5.20;1.00
6740;DHT22;3407;49.882;10.920;2023-02-10T01:00:52;-5.30;1.00
6740;DHT22;3407;49.882;10.920;2023-02-10T01:05:47;-5.30;1.00
6740;DHT22;3407;49.882;10.920;2023-02-10T01:10:43;-5.30;1.00
6740;DHT22;3407;49.882;10.920;2023-02-10T01:15:46;-5.30;1.00
6740;DHT22;3407;49.882;10.920;2023-02-10T01:20:42;-5.40;1.00
6740;DHT22;3407;49.882;10.920;2023-02-10T01:25:38;-5.40;1.00
6740;DHT22;3407;49.882;10.920;2023-02-10T01:30:34;-5.40;1.00
6740;DHT22;3407;49.882;10.920;2023-02-10T01:35:30;-5.30;1.00
6740;DHT22;3407;49.882;10.920;2023-02-10T01:40:26;-5.30;1.00
6740;DHT22;3407;49.882;10.920;2023-02-10T01:45:33;-5.50;1.00
6740;DHT22;3407;49.882;10.920;2023-02-10T01:50:35;-5.50;1.00
6740;DHT22;3407;49.882;10.920;2023-02-10T01:55:33;-5.50;1.00
6740;DHT22;3407;49.882;10.920;2023-02-10T02:00:30;-5.60;1.00
6740;DHT22;3407;49.882;10.920;2023-02-10T02:05:34;-5.60;1.00
6740;DHT22;3407;49.882;10.920;2023-02-10T02:10:53;-5.70;1.00
6740;DHT22;3407;49.882;10.920;2023-02-10T02:15:57;-5.70;1.00
6740;DHT22;3407;49.882;10.920;2023-02-10T02:31:44;-5.70;1.00
6740;DHT22;3407;49.882;10.920;2023-02-10T02:36:51;-5.70;1.00
6740;DHT22;3407;49.882;10.920;2023-02-10T02:41:58;-5.90;1.00
6740;DHT22;3407;49.882;10.920;2023-02-10T02:47:00;-5.90;1.00
6740;DHT22;3407;49.882;10.920;2023-02-10T02:52:17;-5.80;1.00
6740;DHT22;3407;49.882;10.920;2023-02-10T02:57:44;-5.80;1.00
6740;DHT22;3407;49.882;10.920;2023-02-10T03:02:42;-5.70;1.00
6740;DHT22;3407;49.882;10.920;2023-02-10T03:07:40;-5.80;1.00
6740;DHT22;3407;49.882;10.920;2023-02-10T03:12:35;-5.90;1.00
6740;DHT22;3407;49.882;10.920;2023-02-10T03:17:31;-5.90;1.00
6740;DHT22;3407;49.882;10.920;2023-02-10T03:22:26;-6.00;1.00
6740;DHT22;3407;49.882;10.920;2023-02-10T03:27:22;-6.00;1.00
6740;DHT22;3407;49.882;10.920;2023-02-10T03:32:18;-6.10;1.00
6740;DHT22;3407;49.882;10.920;2023-02-10T03:37:14;-6.20;1.00
6740;DHT22;3407;49.882;10.920;2023-02-10T03:42:09;-6.20;1.00
6740;DHT22;3407;49.882;10.920;2023-02-10T03:47:06;-6.30;1.00
6740;DHT22;3407;49.882;10.920;2023-02-10T03:52:02;-6.30;1.00
6740;DHT22;3407;49.882;10.920;2023-02-10T03:56:57;-6.30;1.00
6740;DHT22;3407;49.882;10.920;2023-02-10T04:01:53;-6.30;1.00
6740;DHT22;3407;49.882;10.920;2023-02-10T04:06:48;-6.40;1.00
6740;DHT22;3407;49.882;10.920;2023-02-10T04:11:44;-6.30;1.00
6740;DHT22;3407;49.882;10.920;2023-02-10T04:16:39;-6.30;1.00
6740;DHT22;3407;49.882;10.920;2023-02-10T04:21:35;-6.40;1.00
6740;DHT22;3407;49.882;10.920;2023-02-10T04:26:30;-6.40;1.00
6740;DHT22;3407;49.882;10.920;2023-02-10T04:31:26;-6.50;1.00
6740;DHT22;3407;49.882;10.920;2023-02-10T04:36:21;-6.40;1.00
6740;DHT22;3407;49.882;10.920;2023-02-10T04:41:17;-6.40;1.00
6740;DHT22;3407;49.882;10.920;2023-02-10T04:46:13;-6.40;1.00
6740;DHT22;3407;49.882;10.920;2023-02-10T04:51:09;-6.30;1.00
6740;DHT22;3407;49.882;10.920;2023-02-10T04:56:06;-6.20;1.00
6740;DHT22;3407;49.882;10.920;2023-02-10T05:01:02;-6.10;1.00
6740;DHT22;3407;49.882;10.920;2023-02-10T05:05:57;-6.40;1.00
6740;DHT22;3407;49.882;10.920;2023-02-10T05:10:53;-6.00;1.00
6740;DHT22;3407;49.882;10.920;2023-02-10T05:15:49;-6.10;1.00
6740;DHT22;3407;49.882;10.920;2023-02-10T05:20:44;-6.20;1.00
6740;DHT22;3407;49.882;10.920;2023-02-10T05:25:40;-6.20;1.00
6740;DHT22;3407;49.882;10.920;2023-02-10T05:30:35;-6.30;1.00
6740;DHT22;3407;49.882;10.920;2023-02-10T05:35:31;-6.30;1.00
6740;DHT22;3407;49.882;10.920;2023-02-10T05:40:26;-6.40;1.00
6740;DHT22;3407;49.882;10.920;2023-02-10T05:45:22;-6.40;1.00
6740;DHT22;3407;49.882;10.920;2023-02-10T05:50:18;-6.40;1.00
6740;DHT22;3407;49.882;10.920;2023-02-10T05:55:14;-6.40;1.00
6740;DHT22;3407;49.882;10.920;2023-02-10T06:00:09;-6.20;1.00
6740;DHT22;3407;49.882;10.920;2023-02-10T06:05:05;-6.10;1.00
6740;DHT22;3407;49.882;10.920;2023-02-10T06:10:01;-6.00;1.00
6740;DHT22;3407;49.882;10.920;2023-02-10T06:14:57;-6.00;1.00
6740;DHT22;3407;49.882;10.920;2023-02-10T06:19:53;-5.90;1.00
6740;DHT22;3407;49.882;10.920;2023-02-10T06:24:48;-5.90;1.00
6740;DHT22;3407;49.882;10.920;2023-02-10T06:29:44;-5.80;1.00
6740;DHT22;3407;49.882;10.920;2023-02-10T06:34:39;-5.80;1.00
6740;DHT22;3407;49.882;10.920;2023-02-10T06:39:36;-5.70;1.00
6740;DHT22;3407;49.882;10.920;2023-02-10T06:44:31;-5.60;1.00
6740;DHT22;3407;49.882;10.920;2023-02-10T06:49:27;-5.40;1.00
6740;DHT22;3407;49.882;10.920;2023-02-10T06:54:22;-5.10;1.00
6740;DHT22;3407;49.882;10.920;2023-02-10T06:59:18;-4.80;1.00
6740;DHT22;3407;49.882;10.920;2023-02-10T07:04:14;-4.60;1.00
6740;DHT22;3407;49.882;10.920;2023-02-10T07:09:09;-4.50;1.00
6740;DHT22;3407;49.882;10.920;2023-02-10T07:14:05;-4.20;1.00
6740;DHT22;3407;49.882;10.920;2023-02-10T07:19:00;-4.00;1.00
6740;DHT22;3407;49.882;10.920;2023-02-10T07:23:56;-3.80;1.00
6740;DHT22;3407;49.882;10.920;2023-02-10T07:28:51;-3.70;1.00
6740;DHT22;3407;49.882;10.920;2023-02-10T07:33:47;-3.60;1.00
6740;DHT22;3407;49.882;10.920;2023-02-10T07:38:42;-3.40;1.00
6740;DHT22;3407;49.882;10.920;2023-02-10T07:43:38;-3.30;1.00
6740;DHT22;3407;49.882;10.920;2023-02-10T07:48:33;-3.10;1.00
6740;DHT22;3407;49.882;10.920;2023-02-10T07:53:29;-3.00;1.00
6740;DHT22;3407;49.882;10.920;2023-02-10T07:58:24;-2.80;1.00
6740;DHT22;3407;49.882;10.920;2023-02-10T08:03:21;-2.80;1.00
6740;DHT22;3407;49.882;10.920;2023-02-10T08:08:17;-2.60;1.00
6740;DHT22;3407;49.882;10.920;2023-02-10T08:13:12;-2.40;1.00
6740;DHT22;3407;49.882;10.920;2023-02-10T08:18:08;-2.20;1.00
6740;DHT22;3407;49.882;10.920;2023-02-10T08:23:03;-2.10;1.00
6740;DHT22;3407;49.882;10.920;2023-02-10T08:27:59;-1.90;1.00
6740;DHT22;3407;49.882;10.920;2023-02-10T08:32:54;-1.80;99.90
6740;DHT22;3407;49.882;10.920;2023-02-10T08:37:50;-1.80;81.90
6740;DHT22;3407;49.882;10.920;2023-02-10T08:42:45;-1.90;99.90
6740;DHT22;3407;49.882;10.920;2023-02-10T08:47:41;-1.70;99.90
6740;DHT22;3407;49.882;10.920;2023-02-10T08:52:36;-1.50;99.90
6740;DHT22;3407;49.882;10.920;2023-02-10T08:57:32;-1.40;99.90
6740;DHT22;3407;49.882;10.920;2023-02-10T09:02:28;-1.20;16.10
6740;DHT22;3407;49.882;10.920;2023-02-10T09:07:24;-1.20;1.00
6740;DHT22;3407;49.882;10.920;2023-02-10T09:12:20;-1.00;99.90
6740;DHT22;3407;49.882;10.920;2023-02-10T09:17:15;-1.00;1.00
6740;DHT22;3407;49.882;10.920;2023-02-10T09:22:11;-0.80;99.90
6740;DHT22;3407;49.882;10.920;2023-02-10T09:27:06;-0.50;99.90
6740;DHT22;3407;49.882;10.920;2023-02-10T09:32:02;-0.20;99.90
6740;DHT22;3407;49.882;10.920;2023-02-10T09:36:57;-0.20;99.90
6740;DHT22;3407;49.882;10.920;2023-02-10T09:42:08;-0.30;1.00
6740;DHT22;3407;49.882;10.920;2023-02-10T09:57:34;-0.40;1.00
6740;DHT22;3407;49.882;10.920;2023-02-10T10:02:32;-0.30;99.90
6740;DHT22;3407;49.882;10.920;2023-02-10T10:07:34;-0.20;99.90
6740;DHT22;3407;49.882;10.920;2023-02-10T10:12:33;-0.10;99.90
6740;DHT22;3407;49.882;10.920;2023-02-10T10:17:51;-0.20;99.90
6740;DHT22;3407;49.882;10.920;2023-02-10T10:33:39;0.30;99.90
6740;DHT22;3407;49.882;10.920;2023-02-10T10:38:51;0.40;1.00
6740;DHT22;3407;49.882;10.920;2023-02-10T10:43:49;0.30;99.90
6740;DHT22;3407;49.882;10.920;2023-02-10T10:48:46;0.20;99.90
6740;DHT22;3407;49.882;10.920;2023-02-10T10:53:56;0.20;1.00
6740;DHT22;3407;49.882;10.920;2023-02-10T10:58:52;0.20;99.90
6740;DHT22;3407;49.882;10.920;2023-02-10T11:03:48;0.40;1.00
6740;DHT22;3407;49.882;10.920;2023-02-10T11:08:55;0.50;1.00
6740;DHT22;3407;49.882;10.920;2023-02-10T11:13:55;0.70;1.00
6740;DHT22;3407;49.882;10.920;2023-02-10T11:18:56;0.80;1.00
6740;DHT22;3407;49.882;10.920;2023-02-10T11:23:53;0.70;1.00
6740;DHT22;3407;49.882;10.920;2023-02-10T11:28:50;0.70;1.00
6740;DHT22;3407;49.882;10.920;2023-02-10T11:34:01;0.70;1.00
6740;DHT22;3407;49.882;10.920;2023-02-10T11:39:03;0.80;99.90
6740;DHT22;3407;49.882;10.920;2023-02-10T11:44:00;0.90;99.90
6740;DHT22;3407;49.882;10.920;2023-02-10T11:49:00;1.00;1.00
6740;DHT22;3407;49.882;10.920;2023-02-10T11:53:57;1.20;99.90
6740;DHT22;3407;49.882;10.920;2023-02-10T11:59:16;1.30;1.00
6740;DHT22;3407;49.882;10.920;2023-02-10T12:04:40;1.20;1.00
6740;DHT22;3407;49.882;10.920;2023-02-10T12:09:54;1.20;99.90
6740;DHT22;3407;49.882;10.920;2023-02-10T12:20:24;1.40;99.90
6740;DHT22;3407;49.882;10.920;2023-02-10T12:30:46;1.60;1.00
6740;DHT22;3407;49.882;10.920;2023-02-10T12:36:07;1.70;1.00
6740;DHT22;3407;49.882;10.920;2023-02-10T12:41:13;1.80;1.00
6740;DHT22;3407;49.882;10.920;2023-02-10T12:51:34;1.70;99.90
6740;DHT22;3407;49.882;10.920;2023-02-10T12:56:39;1.80;1.00
6740;DHT22;3407;49.882;10.920;2023-02-10T13:01:39;2.00;99.90
6740;DHT22;3407;49.882;10.920;2023-02-10T13:06:40;2.20;99.90
6740;DHT22;3407;49.882;10.920;2023-02-10T13:11:43;2.30;99.90
6740;DHT22;3407;49.882;10.920;2023-02-10T13:16:50;2.30;35.90
6740;DHT22;3407;49.882;10.920;2023-02-10T13:27:24;2.20;20.80
6740;DHT22;3407;49.882;10.920;2023-02-10T13:37:48;2.20;1.00
6740;DHT22;3407;49.882;10.920;2023-02-10T13:43:00;2.40;21.30
6740;DHT22;3407;49.882;10.920;2023-02-10T13:47:58;2.60;14.50
6740;DHT22;3407;49.882;10.920;2023-02-10T13:53:02;2.90;1.00
6740;DHT22;3407;49.882;10.920;2023-02-10T14:03:23;3.40;99.90
6740;DHT22;3407;49.882;10.920;2023-02-10T14:08:35;3.40;99.90
6740;DHT22;3407;49.882;10.920;2023-02-10T14:13:33;3.40;99.90
6740;DHT22;3407;49.882;10.920;2023-02-10T14:18:34;3.30;99.90
6740;DHT22;3407;49.882;10.920;2023-02-10T14:23:33;3.30;99.90
6740;DHT22;3407;49.882;10.920;2023-02-10T14:28:38;3.30;99.90
6740;DHT22;3407;49.882;10.920;2023-02-10T14:33:35;3.40;99.90
6740;DHT22;3407;49.882;10.920;2023-02-10T14:38:32;3.30;99.90
6740;DHT22;3407;49.882;10.920;2023-02-10T14:43:36;3.50;99.90
6740;DHT22;3407;49.882;10.920;2023-02-10T14:48:32;3.50;99.90
6740;DHT22;3407;49.882;10.920;2023-02-10T14:53:28;3.30;99.90
6740;DHT22;3407;49.882;10.920;2023-02-10T14:58:24;3.10;99.90
6740;DHT22;3407;49.882;10.920;2023-02-10T15:03:22;3.10;99.90
6740;DHT22;3407;49.882;10.920;2023-02-10T15:08:24;2.90;1.00
6740;DHT22;3407;49.882;10.920;2023-02-10T15:13:30;2.80;1.00
6740;DHT22;3407;49.882;10.920;2023-02-10T15:18:31;2.80;1.00
6740;DHT22;3407;49.882;10.920;2023-02-10T15:23:28;2.70;1.00
6740;DHT22;3407;49.882;10.920;2023-02-10T15:28:28;2.70;1.00
6740;DHT22;3407;49.882;10.920;2023-02-10T15:33:27;2.60;85.30
6740;DHT22;3407;49.882;10.920;2023-02-10T15:38:24;2.60;99.90
6740;DHT22;3407;49.882;10.920;2023-02-10T15:43:46;2.40;99.90
6740;DHT22;3407;49.882;10.920;2023-02-10T15:48:43;2.30;1.00
6740;DHT22;3407;49.882;10.920;2023-02-10T15:53:38;2.30;1.00
6740;DHT22;3407;49.882;10.920;2023-02-10T15:58:34;2.20;42.90
6740;DHT22;3407;49.882;10.920;2023-02-10T16:03:29;2.10;99.90
6740;DHT22;3407;49.882;10.920;2023-02-10T16:08:25;2.00;1.00
6740;DHT22;3407;49.882;10.920;2023-02-10T16:13:20;1.90;1.00
6740;DHT22;3407;49.882;10.920;2023-02-10T16:18:19;1.80;99.90
6740;DHT22;3407;49.882;10.920;2023-02-10T16:23:17;1.70;1.00
6740;DHT22;3407;49.882;10.920;2023-02-10T16:28:15;1.50;99.90
6740;DHT22;3407;49.882;10.920;2023-02-10T16:33:11;1.40;99.90
6740;DHT22;3407;49.882;10.920;2023-02-10T16:38:09;1.20;1.00
6740;DHT22;3407;49.882;10.920;2023-02-10T16:43:05;1.00;99.90
6740;DHT22;3407;49.882;10.920;2023-02-10T16:48:01;1.00;99.90
6740;DHT22;3407;49.882;10.920;2023-02-10T16:52:57;0.60;1.00
6740;DHT22;3407;49.882;10.920;2023-02-10T16:57:53;0.50;1.00
6740;DHT22;3407;49.882;10.920;2023-02-10T17:02:49;0.30;99.90
6740;DHT22;3407;49.882;10.920;2023-02-10T17:07:45;0.20;1.00
6740;DHT22;3407;49.882;10.920;2023-02-10T17:12:41;0.10;99.90
6740;DHT22;3407;49.882;10.920;2023-02-10T17:17:37;0.10;99.90
6740;DHT22;3407;49.882;10.920;2023-02-10T17:22:32;0.00;99.90
6740;DHT22;3407;49.882;10.920;2023-02-10T17:27:28;0.00;99.90
6740;DHT22;3407;49.882;10.920;2023-02-10T17:32:23;0.10;99.90
6740;DHT22;3407;49.882;10.920;2023-02-10T17:37:19;-0.10;99.90
6740;DHT22;3407;49.882;10.920;2023-02-10T17:42:14;-0.20;99.90
6740;DHT22;3407;49.882;10.920;2023-02-10T17:47:13;-0.30;1.00
6740;DHT22;3407;49.882;10.920;2023-02-10T17:52:08;-0.40;1.00
6740;DHT22;3407;49.882;10.920;2023-02-10T17:57:04;-0.40;1.00
6740;DHT22;3407;49.882;10.920;2023-02-10T18:02:00;-0.40;1.00
6740;DHT22;3407;49.882;10.920;2023-02-10T18:06:57;-0.30;1.00
6740;DHT22;3407;49.882;10.920;2023-02-10T18:11:53;-0.20;1.00
6740;DHT22;3407;49.882;10.920;2023-02-10T18:16:49;-0.30;1.00
6740;DHT22;3407;49.882;10.920;2023-02-10T18:21:44;-0.30;1.00
6740;DHT22;3407;49.882;10.920;2023-02-10T18:26:40;-0.30;1.00
6740;DHT22;3407;49.882;10.920;2023-02-10T18:31:36;-0.40;1.00
6740;DHT22;3407;49.882;10.920;2023-02-10T18:36:32;-0.40;1.00
6740;DHT22;3407;49.882;10.920;2023-02-10T18:41:28;-0.40;1.00
6740;DHT22;3407;49.882;10.920;2023-02-10T18:46:23;-0.50;1.00
6740;DHT22;3407;49.882;10.920;2023-02-10T18:51:19;-0.50;1.00
6740;DHT22;3407;49.882;10.920;2023-02-10T18:56:17;-0.50;1.00
6740;DHT22;3407;49.882;10.920;2023-02-10T19:01:18;-0.50;1.00
6740;DHT22;3407;49.882;10.920;2023-02-10T19:06:15;-0.60;1.00
6740;DHT22;3407;49.882;10.920;2023-02-10T19:11:12;-0.80;1.00
6740;DHT22;3407;49.882;10.920;2023-02-10T19:16:09;-0.90;1.00
6740;DHT22;3407;49.882;10.920;2023-02-10T19:21:05;-1.00;1.00
6740;DHT22;3407;49.882;10.920;2023-02-10T19:26:09;-1.20;1.00
6740;DHT22;3407;49.882;10.920;2023-02-10T19:31:06;-1.30;1.00
6740;DHT22;3407;49.882;10.920;2023-02-10T19:36:03;-1.50;1.00
6740;DHT22;3407;49.882;10.920;2023-02-10T19:41:05;-1.60;1.00
6740;DHT22;3407;49.882;10.920;2023-02-10T19:46:01;-1.70;1.00
6740;DHT22;3407;49.882;10.920;2023-02-10T19:51:03;-1.80;1.00
6740;DHT22;3407;49.882;10.920;2023-02-10T19:55:59;-1.90;1.00
6740;DHT22;3407;49.882;10.920;2023-02-10T20:00:59;-1.90;1.00
6740;DHT22;3407;49.882;10.920;2023-02-10T20:05:55;-2.00;1.00
6740;DHT22;3407;49.882;10.920;2023-02-10T20:10:53;-2.00;1.00
6740;DHT22;3407;49.882;10.920;2023-02-10T20:15:48;-2.00;1.00
6740;DHT22;3407;49.882;10.920;2023-02-10T20:20:46;-2.00;1.00
6740;DHT22;3407;49.882;10.920;2023-02-10T20:25:42;-2.00;1.00
6740;DHT22;3407;49.882;10.920;2023-02-10T20:30:39;-2.10;1.00
6740;DHT22;3407;49.882;10.920;2023-02-10T20:35:35;-2.10;1.00
6740;DHT22;3407;49.882;10.920;2023-02-10T20:40:32;-2.20;1.00
6740;DHT22;3407;49.882;10.920;2023-02-10T20:45:27;-2.30;1.00
6740;DHT22;3407;49.882;10.920;2023-02-10T20:50:23;-2.30;1.00
6740;DHT22;3407;49.882;10.920;2023-02-10T20:55:19;-2.30;1.00
6740;DHT22;3407;49.882;10.920;2023-02-10T21:00:14;-2.30;1.00
6740;DHT22;3407;49.882;10.920;2023-02-10T21:05:10;-2.20;1.00
6740;DHT22;3407;49.882;10.920;2023-02-10T21:10:06;-2.20;1.00
6740;DHT22;3407;49.882;10.920;2023-02-10T21:15:02;-2.30;1.00
6740;DHT22;3407;49.882;10.920;2023-02-10T21:19:57;-2.40;1.00
6740;DHT22;3407;49.882;10.920;2023-02-10T21:24:53;-2.30;1.00
6740;DHT22;3407;49.882;10.920;2023-02-10T21:29:51;-2.30;1.00
6740;DHT22;3407;49.882;10.920;2023-02-10T21:34:47;-2.30;1.00
6740;DHT22;3407;49.882;10.920;2023-02-10T21:39:43;-2.30;1.00
6740;DHT22;3407;49.882;10.920;2023-02-10T21:44:41;-2.30;1.00
6740;DHT22;3407;49.882;10.920;2023-02-10T21:49:36;-2.50;1.00
6740;DHT22;3407;49.882;10.920;2023-02-10T21:54:36;-2.60;1.00
6740;DHT22;3407;49.882;10.920;2023-02-10T21:59:32;-2.70;1.00
6740;DHT22;3407;49.882;10.920;2023-02-10T22:04:28;-2.80;1.00
6740;DHT22;3407;49.882;10.920;2023-02-10T22:09:24;-2.90;1.00
6740;DHT22;3407;49.882;10.920;2023-02-10T22:14:19;-2.80;1.00
6740;DHT22;3407;49.882;10.920;2023-02-10T22:19:15;-2.90;1.00
6740;DHT22;3407;49.882;10.920;2023-02-10T22:24:11;-3.00;1.00
6740;DHT22;3407;49.882;10.920;2023-02-10T22:29:07;-3.10;1.00
6740;DHT22;3407;49.882;10.920;2023-02-10T22:34:04;-3.20;1.00
6740;DHT22;3407;49.882;10.920;2023-02-10T22:39:00;-3.20;1.00
6740;DHT22;3407;49.882;10.920;2023-02-10T22:44:00;-3.20;1.00
6740;DHT22;3407;49.882;10.920;2023-02-10T22:48:56;-3.30;1.00
6740;DHT22;3407;49.882;10.920;2023-02-10T22:54:00;-3.30;1.00
6740;DHT22;3407;49.882;10.920;2023-02-10T22:58:56;-3.30;1.00
6740;DHT22;3407;49.882;10.920;2023-02-10T23:03:52;-3.30;1.00
6740;DHT22;3407;49.882;10.920;2023-02-10T23:08:47;-3.40;1.00
6740;DHT22;3407;49.882;10.920;2023-02-10T23:13:44;-3.30;1.00
6740;DHT22;3407;49.882;10.920;2023-02-10T23:18:40;-3.20;1.00
6740;DHT22;3407;49.882;10.920;2023-02-10T23:23:36;-3.20;2.60
6740;DHT22;3407;49.882;10.920;2023-02-10T23:28:32;-3.10;1.60
6740;DHT22;3407;49.882;10.920;2023-02-10T23:33:28;-3.20;1.00
6740;DHT22;3407;49.882;10.920;2023-02-10T23:38:23;-3.20;1.10
6740;DHT22;3407;49.882;10.920;2023-02-10T23:43:19;-3.20;5.20
6740;DHT22;3407;49.882;10.920;2023-02-10T23:48:14;-3.00;15.70
6740;DHT22;3407;49.882;10.920;2023-02-10T23:53:10;-2.80;21.40
6740;DHT22;3407;49.882;10.920;2023-02-10T23:58:06;-2.60;23.20
